Time,TemperatureF,DewpointF,PressureIn,WindDirection,WindDirectionDegrees,WindSpeedMPH,WindSpeedGustMPH,Humidity,HourlyPrecipIn,Conditions,Clouds,dailyrainin,SolarRadiationWatts/m^2,SoftwareType,DateUTC
2013-03-10 00:11:00,60.0,39.0,-100.00,SSE,150,7.0,12.0,45,0.00,,,0.00,1.000000,,2013-03-10 06:11:00,
2013-03-10 00:22:00,60.0,39.0,-100.00,SSE,150,7.0,12.0,45,0.00,,,0.00,1.000000,,2013-03-10 06:22:00,
2013-03-10 00:32:00,60.0,39.0,-100.00,SSE,150,7.0,12.0,45,0.00,,,0.00,1.000000,,2013-03-10 06:32:00,
2013-03-10 00:42:00,60.0,39.0,-100.00,SSE,150,7.0,12.0,45,0.00,,,0.00,1.000000,,2013-03-10 06:42:00,
2013-03-10 00:51:00,60.0,39.0,-100.00,SSE,150,7.0,12.0,45,0.00,,,0.00,1.000000,,2013-03-10 06:51:00,
2013-03-10 01:11:00,58.0,40.0,-100.00,SSE,157,6.0,10.0,52,0.00,,,0.00,1.000000,,2013-03-10 07:11:00,
2013-03-10 01:21:00,58.0,40.0,-100.00,SSE,157,6.0,10.0,52,0.00,,,0.00,1.000000,,2013-03-10 07:21:00,
2013-03-10 01:32:00,58.0,40.0,-100.00,SSE,157,6.0,10.0,52,0.00,,,0.00,1.000000,,2013-03-10 07:32:00,
2013-03-10 01:42:00,58.0,40.0,-100.00,SSE,157,6.0,10.0,52,0.00,,,0.00,1.000000,,2013-03-10 07:42:00,
2013-03-10 01:52:00,58.0,40.0,-100.00,SSE,157,6.0,10.0,52,0.00,,,0.00,1.000000,,2013-03-10 07:52:00,
2013-03-10 03:11:00,59.0,39.0,-100.00,South,178,9.0,15.0,48,0.00,,,0.00,1.000000,,2013-03-10 08:11:00,
2013-03-10 03:21:00,59.0,39.0,-100.00,South,178,9.0,15.0,48,0.00,,,0.00,1.000000,,2013-03-10 08:21:00,
2013-03-10 03:31:00,59.0,39.0,-100.00,South,178,9.0,15.0,48,0.00,,,0.00,1.000000,,2013-03-10 08:31:00,
2013-03-10 03:42:00,59.0,39.0,-100.00,South,178,9.0,15.0,48,0.00,,,0.00,1.000000,,2013-03-10 08:42:00,
2013-03-10 03:51:00,59.0,39.0,-100.00,South,178,9.0,15.0,48,0.00,,,0.00,1.000000,,2013-03-10 08:51:00,
2013-03-10 04:21:00,59.0,40.0,-100.00,South,175,10.0,17.0,49,0.00,,,0.00,1.000000,,2013-03-10 09:21:00,
2013-03-10 04:31:00,59.0,40.0,-100.00,South,175,10.0,17.0,49,0.00,,,0.00,1.000000,,2013-03-10 09:31:00,
2013-03-10 04:41:00,59.0,40.0,-100.00,South,175,10.0,17.0,49,0.00,,,0.00,1.000000,,2013-03-10 09:41:00,
2013-03-10 04:51:00,59.0,40.0,-100.00,South,175,10.0,17.0,49,0.00,,,0.00,1.000000,,2013-03-10 09:51:00,
2013-03-10 05:11:00,59.0,47.0,-100.00,South,177,9.0,14.0,65,0.00,,,0.00,1.000000,,2013-03-10 10:11:00,
2013-03-10 05:21:00,59.0,47.0,-100.00,South,177,9.0,14.0,65,0.00,,,0.00,1.000000,,2013-03-10 10:21:00,
2013-03-10 05:32:00,59.0,47.0,-100.00,South,177,9.0,14.0,65,0.00,,,0.00,1.000000,,2013-03-10 10:32:00,
2013-03-10 05:41:00,59.0,47.0,-100.00,South,177,9.0,14.0,65,0.00,,,0.00,1.000000,,2013-03-10 10:41:00,
2013-03-10 05:51:00,59.0,47.0,-100.00,South,177,9.0,14.0,65,0.00,,,0.00,1.000000,,2013-03-10 10:51:00,
2013-03-10 06:21:00,60.0,51.0,-100.00,South,186,12.0,19.0,71,0.00,,,0.00,1.000000,,2013-03-10 11:21:00,
2013-03-10 06:32:00,60.0,51.0,-100.00,South,186,12.0,19.0,71,0.00,,,0.00,1.000000,,2013-03-10 11:32:00,
2013-03-10 06:42:00,60.0,51.0,-100.00,South,186,12.0,19.0,71,0.00,,,0.00,1.000000,,2013-03-10 11:42:00,
2013-03-10 06:52:00,60.0,51.0,-100.00,South,186,12.0,19.0,71,0.00,,,0.00,1.000000,,2013-03-10 11:52:00,
2013-03-10 09:21:00,60.0,53.0,-100.00,South,173,13.0,27.0,78,-99.99,,,0.00,25.000000,,2013-03-10 14:21:00,
2013-03-10 09:32:00,60.0,53.0,-100.00,South,173,13.0,27.0,78,-99.99,,,0.00,25.000000,,2013-03-10 14:32:00,
2013-03-10 09:41:00,60.0,53.0,-100.00,South,173,13.0,27.0,78,-99.99,,,0.00,25.000000,,2013-03-10 14:41:00,
2013-03-10 09:51:00,60.0,53.0,-100.00,South,173,13.0,27.0,78,-99.99,,,0.00,25.000000,,2013-03-10 14:51:00,
2013-03-10 10:21:00,60.0,53.0,-100.00,South,170,15.0,30.0,79,0.00,,,0.00,21.000000,,2013-03-10 15:21:00,
2013-03-10 10:32:00,60.0,53.0,-100.00,South,170,15.0,30.0,79,0.00,,,0.00,21.000000,,2013-03-10 15:32:00,
2013-03-10 10:42:00,60.0,53.0,-100.00,South,170,15.0,30.0,79,0.00,,,0.00,21.000000,,2013-03-10 15:42:00,
2013-03-10 10:51:00,60.0,53.0,-100.00,South,170,15.0,30.0,79,0.00,,,0.00,21.000000,,2013-03-10 15:51:00,
2013-03-10 11:21:00,58.0,56.0,-100.00,SSE,168,14.0,32.0,92,0.10,,,0.10,23.000000,,2013-03-10 16:21:00,
2013-03-10 11:32:00,58.0,56.0,-100.00,SSE,168,14.0,32.0,92,0.10,,,0.10,23.000000,,2013-03-10 16:32:00,
2013-03-10 11:41:00,58.0,56.0,-100.00,SSE,168,14.0,32.0,92,0.10,,,0.10,23.000000,,2013-03-10 16:41:00,
2013-03-10 11:51:00,58.0,56.0,-100.00,SSE,168,14.0,32.0,92,0.10,,,0.10,23.000000,,2013-03-10 16:51:00,
2013-03-10 13:11:00,52.0,49.0,-100.00,WNW,299,10.0,27.0,91,-99.99,,,0.55,39.000000,,2013-03-10 18:11:00,
2013-03-10 13:22:00,52.0,49.0,-100.00,WNW,299,10.0,27.0,91,-99.99,,,0.55,39.000000,,2013-03-10 18:22:00,
2013-03-10 13:32:00,52.0,49.0,-100.00,WNW,299,10.0,27.0,91,-99.99,,,0.55,39.000000,,2013-03-10 18:32:00,
2013-03-10 13:42:00,52.0,49.0,-100.00,WNW,299,10.0,27.0,91,-99.99,,,0.55,39.000000,,2013-03-10 18:42:00,
2013-03-10 13:52:00,52.0,49.0,-100.00,WNW,299,10.0,27.0,91,-99.99,,,0.55,39.000000,,2013-03-10 18:52:00,
2013-03-10 14:21:00,52.0,50.0,-100.00,NNW,340,7.0,19.0,93,0.11,,,0.66,103.000000,,2013-03-10 19:21:00,
2013-03-10 14:32:00,52.0,50.0,-100.00,NNW,340,7.0,19.0,93,0.11,,,0.66,103.000000,,2013-03-10 19:32:00,
2013-03-10 14:42:00,52.0,50.0,-100.00,NNW,340,7.0,19.0,93,0.11,,,0.66,103.000000,,2013-03-10 19:42:00,
2013-03-10 14:52:00,52.0,50.0,-100.00,NNW,340,7.0,19.0,93,0.11,,,0.66,103.000000,,2013-03-10 19:52:00,
2013-03-10 15:12:00,51.0,50.0,-100.00,SSE,156,4.0,8.0,97,0.15,,,0.81,73.000000,,2013-03-10 20:12:00,
2013-03-10 15:22:00,51.0,50.0,-100.00,SSE,156,4.0,8.0,97,0.15,,,0.81,73.000000,,2013-03-10 20:22:00,
2013-03-10 15:32:00,51.0,50.0,-100.00,SSE,156,4.0,8.0,97,0.15,,,0.81,73.000000,,2013-03-10 20:32:00,
2013-03-10 15:42:00,51.0,50.0,-100.00,SSE,156,4.0,8.0,97,0.15,,,0.81,73.000000,,2013-03-10 20:42:00,
2013-03-10 15:52:00,51.0,50.0,-100.00,SSE,156,4.0,8.0,97,0.15,,,0.81,73.000000,,2013-03-10 20:52:00,
2013-03-10 16:23:00,51.0,50.0,-100.00,ESE,119,8.0,13.0,98,0.05,,,0.86,84.000000,,2013-03-10 21:23:00,
2013-03-10 16:32:00,51.0,50.0,-100.00,ESE,119,8.0,13.0,98,0.05,,,0.86,84.000000,,2013-03-10 21:32:00,
2013-03-10 16:42:00,51.0,50.0,-100.00,ESE,119,8.0,13.0,98,0.05,,,0.86,84.000000,,2013-03-10 21:42:00,
2013-03-10 16:52:00,51.0,50.0,-100.00,ESE,119,8.0,13.0,98,0.05,,,0.86,84.000000,,2013-03-10 21:52:00,
2013-03-10 17:12:00,53.0,52.0,-100.00,SSE,160,8.0,11.0,95,0.02,,,0.88,173.000000,,2013-03-10 22:12:00,
2013-03-10 17:22:00,53.0,52.0,-100.00,SSE,160,8.0,11.0,95,0.02,,,0.88,173.000000,,2013-03-10 22:22:00,
2013-03-10 17:32:00,53.0,52.0,-100.00,SSE,160,8.0,11.0,95,0.02,,,0.88,173.000000,,2013-03-10 22:32:00,
2013-03-10 17:43:00,53.0,52.0,-100.00,SSE,160,8.0,11.0,95,0.02,,,0.88,173.000000,,2013-03-10 22:43:00,
2013-03-10 17:52:00,53.0,52.0,-100.00,SSE,160,8.0,11.0,95,0.02,,,0.88,173.000000,,2013-03-10 22:52:00,
2013-03-10 18:12:00,54.0,52.0,-100.00,South,170,6.0,12.0,93,0.00,,,0.88,170.000000,,2013-03-10 23:12:00,
2013-03-10 18:23:00,54.0,52.0,-100.00,South,170,6.0,12.0,93,0.00,,,0.88,170.000000,,2013-03-10 23:23:00,
2013-03-10 18:32:00,54.0,52.0,-100.00,South,170,6.0,12.0,93,0.00,,,0.88,170.000000,,2013-03-10 23:32:00,
2013-03-10 18:42:00,54.0,52.0,-100.00,South,170,6.0,12.0,93,0.00,,,0.88,170.000000,,2013-03-10 23:42:00,
2013-03-10 18:52:00,54.0,52.0,-100.00,South,170,6.0,12.0,93,0.00,,,0.88,170.000000,,2013-03-10 23:52:00,
2013-03-10 19:12:00,53.0,51.0,-100.00,South,174,7.0,12.0,93,0.00,,,0.88,72.000000,,2013-03-11 00:12:00,
2013-03-10 19:23:00,53.0,51.0,-100.00,South,174,7.0,12.0,93,0.00,,,0.88,72.000000,,2013-03-11 00:23:00,
2013-03-10 19:33:00,53.0,51.0,-100.00,South,174,7.0,12.0,93,0.00,,,0.88,72.000000,,2013-03-11 00:33:00,
2013-03-10 19:43:00,53.0,51.0,-100.00,South,174,7.0,12.0,93,0.00,,,0.88,72.000000,,2013-03-11 00:43:00,
2013-03-10 19:52:00,53.0,51.0,-100.00,South,174,7.0,12.0,93,0.00,,,0.88,72.000000,,2013-03-11 00:52:00,
2013-03-10 20:13:00,53.0,52.0,-100.00,SSE,163,7.0,14.0,96,0.00,,,0.88,5.000000,,2013-03-11 01:13:00,
2013-03-10 20:23:00,53.0,52.0,-100.00,SSE,163,7.0,14.0,96,0.00,,,0.88,5.000000,,2013-03-11 01:23:00,
2013-03-10 20:32:00,53.0,52.0,-100.00,SSE,163,7.0,14.0,96,0.00,,,0.88,5.000000,,2013-03-11 01:32:00,
2013-03-10 20:42:00,53.0,52.0,-100.00,SSE,163,7.0,14.0,96,0.00,,,0.88,5.000000,,2013-03-11 01:42:00,
2013-03-10 20:52:00,53.0,52.0,-100.00,SSE,163,7.0,14.0,96,0.00,,,0.88,5.000000,,2013-03-11 01:52:00,
2013-03-10 21:22:00,49.0,46.0,-100.00,WSW,258,10.0,21.0,89,0.08,,,0.96,1.000000,,2013-03-11 02:22:00,
2013-03-10 21:32:00,49.0,46.0,-100.00,WSW,258,10.0,21.0,89,0.08,,,0.96,1.000000,,2013-03-11 02:32:00,
2013-03-10 21:42:00,49.0,46.0,-100.00,WSW,258,10.0,21.0,89,0.08,,,0.96,1.000000,,2013-03-11 02:42:00,
2013-03-10 21:52:00,49.0,46.0,-100.00,WSW,258,10.0,21.0,89,0.08,,,0.96,1.000000,,2013-03-11 02:52:00,
2013-03-10 22:12:00,48.0,41.0,-100.00,West,271,8.0,15.0,77,0.00,,,0.96,1.000000,,2013-03-11 03:12:00,
2013-03-10 22:22:00,48.0,41.0,-100.00,West,271,8.0,15.0,77,0.00,,,0.96,1.000000,,2013-03-11 03:22:00,
2013-03-10 22:32:00,48.0,41.0,-100.00,West,271,8.0,15.0,77,0.00,,,0.96,1.000000,,2013-03-11 03:32:00,
2013-03-10 22:42:00,48.0,41.0,-100.00,West,271,8.0,15.0,77,0.00,,,0.96,1.000000,,2013-03-11 03:42:00,
2013-03-10 22:52:00,48.0,41.0,-100.00,West,271,8.0,15.0,77,0.00,,,0.96,1.000000,,2013-03-11 03:52:00,
2013-03-10 23:12:00,47.0,39.0,-100.00,West,279,9.0,16.0,73,0.00,,,0.96,1.000000,,2013-03-11 04:12:00,
2013-03-10 23:22:00,47.0,39.0,-100.00,West,279,9.0,16.0,73,0.00,,,0.96,1.000000,,2013-03-11 04:22:00,
2013-03-10 23:32:00,47.0,39.0,-100.00,West,279,9.0,16.0,73,0.00,,,0.96,1.000000,,2013-03-11 04:32:00,
2013-03-10 23:42:00,47.0,39.0,-100.00,West,279,9.0,16.0,73,0.00,,,0.96,1.000000,,2013-03-11 04:42:00,
2013-03-10 23:52:00,47.0,39.0,-100.00,West,279,9.0,16.0,73,0.00,,,0.96,1.000000,,2013-03-11 04:52:00,